Time;durP1;ratioP1;P1;durP2;ratioP2;P2;SDS_P1;SDS_P2;PMS_P1;PMS_P2;Temp;Humidity;BMP_temperature;BMP_pressure;BME280_temperature;BME280_humidity;BME280_pressure;Samples;Min_cycle;Max_cycle;Signal;HPM_P1;HPM_P2
2022/02/03 00:01:25;;;;;;;4.13;3.27;;;;;;;6.35;85.90;96249.31;5071984;28;20193;-86
2022/02/03 00:03:56;;;;;;;3.73;3.10;;;;;;;6.33;86.61;96248.66;5072960;28;20204;-86
2022/02/03 00:06:31;;;;;;;4.97;3.33;;;;;;;6.36;86.09;96250.13;5070534;28;20216;-85
2022/02/03 00:09:19;;;;;;;4.50;3.30;;;;;;;6.36;86.11;96250.13;5070739;28;20246;-85
2022/02/03 00:23:05;;;;;;;5.23;3.27;;;;;;;6.39;86.07;96250.66;5072109;28;20235;-85
2022/02/03 00:25:38;;;;;;;4.93;3.37;;;;;;;6.33;86.69;96258.88;5075917;28;20571;-83
2022/02/03 00:28:11;;;;;;;5.27;3.37;;;;;;;6.36;86.49;96245.00;5074822;28;20602;-83
2022/02/03 00:31:02;;;;;;;5.63;3.37;;;;;;;6.38;86.59;96254.16;5070692;28;20193;-84
2022/02/03 00:33:35;;;;;;;3.30;2.90;;;;;;;6.40;86.43;96256.59;5075802;28;20185;-81
2022/02/03 00:36:11;;;;;;;3.90;3.23;;;;;;;6.43;86.03;96252.00;5072630;28;20220;-84
2022/02/03 00:49:44;;;;;;;3.67;3.10;;;;;;;6.50;85.96;96259.97;5071458;28;20706;-84
2022/02/03 00:52:10;;;;;;;4.67;3.23;;;;;;;6.52;85.34;96261.44;5071764;28;20196;-84
2022/02/03 00:54:37;;;;;;;4.37;3.40;;;;;;;6.53;85.45;96263.06;5072359;28;20200;-84
2022/02/03 00:57:05;;;;;;;5.73;3.50;;;;;;;6.56;85.52;96267.09;5072638;27;20229;-84
2022/02/03 00:59:37;;;;;;;5.10;3.50;;;;;;;6.53;85.56;96264.81;5109577;28;20184;-84
2022/02/03 01:02:08;;;;;;;5.57;3.43;;;;;;;6.55;85.46;96273.94;5109523;28;20207;-85
2022/02/03 01:04:38;;;;;;;3.77;3.30;;;;;;;6.55;85.40;96262.91;5097845;28;20213;-84
2022/02/03 01:07:09;;;;;;;4.70;3.50;;;;;;;6.55;85.49;96262.91;5094728;28;20228;-84
2022/02/03 01:09:41;;;;;;;4.40;3.43;;;;;;;6.50;85.44;96263.34;5094968;28;20590;-84
2022/02/03 01:12:17;;;;;;;5.20;3.37;;;;;;;6.51;85.78;96259.84;5095826;28;20815;-84
2022/02/03 01:14:50;;;;;;;4.50;3.00;;;;;;;6.48;85.80;96262.66;5101272;28;20195;-84
2022/02/03 01:17:30;;;;;;;3.80;3.10;;;;;;;6.51;86.01;96261.59;5096089;28;20274;-85
2022/02/03 01:20:32;;;;;;;4.03;3.20;;;;;;;6.49;86.22;96256.59;5094806;28;20650;-84
2022/02/03 01:34:14;;;;;;;3.30;3.00;;;;;;;6.47;86.65;96253.38;5098015;28;20247;-84
2022/02/03 01:37:10;;;;;;;3.60;3.07;;;;;;;6.44;86.84;96257.94;5109355;28;20196;-83
2022/02/03 01:45:20;;;;;;;7.30;3.60;;;;;;;6.42;86.99;96244.47;5091428;28;20199;-85
2022/02/03 01:48:05;;;;;;;5.57;3.47;;;;;;;6.38;87.63;96238.81;5090652;28;20771;-84
2022/02/03 01:53:22;;;;;;;4.87;3.40;;;;;;;6.38;87.70;96238.81;5091376;28;20210;-83
2022/02/03 01:56:01;;;;;;;5.37;3.67;;;;;;;6.38;87.79;96235.44;5091016;28;20203;-84
2022/02/03 01:58:31;;;;;;;4.47;3.27;;;;;;;6.32;88.77;96236.81;5090612;28;20602;-83
2022/02/03 02:01:00;;;;;;;4.17;3.30;;;;;;;6.35;88.21;96235.75;5091644;28;20208;-84
2022/02/03 02:03:36;;;;;;;4.03;3.40;;;;;;;6.34;88.47;96234.13;5091116;28;20204;-84
2022/02/03 02:06:14;;;;;;;3.27;2.97;;;;;;;6.33;88.38;96228.19;5091203;28;20775;-84
2022/02/03 02:08:52;;;;;;;4.27;3.53;;;;;;;6.31;88.98;96214.75;5084141;28;20657;-84
2022/02/03 02:11:42;;;;;;;4.73;3.50;;;;;;;6.23;90.10;96212.84;5091003;28;20202;-84
2022/02/03 02:14:34;;;;;;;4.33;3.10;;;;;;;6.31;88.63;96207.06;5090772;28;20253;-85
2022/02/03 02:17:43;;;;;;;6.60;3.80;;;;;;;6.32;89.05;96206.13;5086910;28;20196;-85
2022/02/03 02:37:10;;;;;;;3.93;3.53;;;;;;;6.47;88.41;96196.28;5084842;28;20202;-81
2022/02/03 02:39:52;;;;;;;4.57;3.80;;;;;;;6.46;88.59;96200.59;5069440;28;20217;-81
2022/02/03 02:42:35;;;;;;;4.33;3.37;;;;;;;6.49;88.42;96205.44;5070003;28;20246;-81
2022/02/03 02:45:06;;;;;;;4.20;3.73;;;;;;;6.49;88.27;96202.88;5069932;28;20552;-84
2022/02/03 02:47:43;;;;;;;5.33;3.60;;;;;;;6.49;88.39;96194.41;5069487;28;20270;-84
2022/02/03 02:50:15;;;;;;;4.00;3.60;;;;;;;6.49;88.49;96200.31;5070057;28;20224;-84
2022/02/03 02:52:51;;;;;;;4.40;3.80;;;;;;;6.51;88.00;96189.97;5069825;28;20726;-85
2022/02/03 02:55:30;;;;;;;4.53;3.80;;;;;;;6.49;88.33;96192.66;5069771;28;20200;-84
2022/02/03 03:04:17;;;;;;;4.67;4.00;;;;;;;6.44;89.62;96205.03;5069146;28;20203;-84
2022/02/03 03:32:00;;;;;;;5.33;4.17;;;;;;;6.40;91.29;96195.19;5069151;28;20191;-84
2022/02/03 03:34:46;;;;;;;5.67;3.90;;;;;;;6.40;91.63;96187.53;5069343;28;20193;-84
2022/02/03 03:37:16;;;;;;;4.53;3.70;;;;;;;6.40;91.44;96190.91;5068794;28;20232;-84
2022/02/03 03:39:49;;;;;;;5.97;3.87;;;;;;;6.38;92.06;96194.53;5068844;28;20660;-85
2022/02/03 03:42:28;;;;;;;4.23;3.83;;;;;;;6.47;91.40;96193.72;5069167;28;20205;-82
2022/02/03 03:44:58;;;;;;;4.10;3.70;;;;;;;6.47;91.31;96189.41;5064202;28;20223;-81
2022/02/03 03:47:28;;;;;;;3.73;3.33;;;;;;;6.48;91.78;96191.03;5071772;28;20236;-85
2022/02/03 03:50:01;;;;;;;3.83;3.20;;;;;;;6.54;91.41;96184.56;5089162;28;20239;-84
2022/02/03 03:52:32;;;;;;;3.53;3.23;;;;;;;6.56;91.25;96188.59;5089459;28;20617;-81
2022/02/03 03:55:10;;;;;;;3.80;3.40;;;;;;;6.53;91.67;96194.00;5090371;28;20208;-83
2022/02/03 03:57:57;;;;;;;3.60;3.30;;;;;;;6.55;91.74;96189.53;5085040;28;20568;-82
2022/02/03 04:00:44;;;;;;;4.33;3.03;;;;;;;6.59;91.27;96187.50;5070707;28;20287;-83
2022/02/03 04:29:05;;;;;;;3.43;3.00;;;;;;;6.54;92.36;96184.56;5066633;28;20207;-85
2022/02/03 04:29:40;;;;;;;3.33;3.00;;;;;;;6.67;91.97;96177.41;5072592;28;20260;-85
2022/02/03 04:44:16;;;;;;;2.40;2.20;;;;;;;6.73;92.11;96161.50;5082390;28;20329;-85
2022/02/03 04:53:47;;;;;;;2.53;2.23;;;;;;;6.72;93.35;96167.56;5092157;28;20230;-84
2022/02/03 04:56:47;;;;;;;2.30;2.10;;;;;;;6.65;94.46;96163.13;5092152;28;20286;-85
2022/02/03 05:02:44;;;;;;;2.20;2.00;;;;;;;6.70;93.93;96154.09;5007928;28;20214;-86
2022/02/03 05:05:37;;;;;;;2.10;1.90;;;;;;;6.72;94.17;96153.97;5066954;28;20196;-85
2022/02/03 05:08:29;;;;;;;1.80;1.70;;;;;;;6.73;94.28;96155.59;5088673;28;20306;-86
2022/02/03 05:11:20;;;;;;;3.00;1.67;;;;;;;6.74;94.18;96152.06;5071676;28;20220;-86
2022/02/03 05:14:32;;;;;;;2.27;1.93;;;;;;;6.68;95.21;96145.75;5092612;28;20202;-85
2022/02/03 05:17:30;;;;;;;2.63;1.80;;;;;;;6.71;95.12;96144.69;5072104;28;20287;-84
2022/02/03 05:20:34;;;;;;;2.10;1.90;;;;;;;6.72;95.45;96138.63;5071854;28;20193;-85
2022/02/03 05:26:36;;;;;;;2.30;1.90;;;;;;;6.71;95.88;96142.13;5089014;27;21060;-86
2022/02/03 05:32:43;;;;;;;2.00;1.80;;;;;;;6.69;96.87;96131.22;5063249;28;20287;-86
2022/02/03 05:35:32;;;;;;;2.10;1.87;;;;;;;6.70;96.09;96133.63;5064502;28;20242;-86
2022/02/03 05:46:59;;;;;;;2.10;1.90;;;;;;;6.77;96.26;96116.75;5063917;28;20223;-84
2022/02/03 06:03:50;;;;;;;3.03;2.40;;;;;;;6.75;96.88;96116.09;5010923;28;20220;-85
2022/02/03 06:06:33;;;;;;;5.20;1.97;;;;;;;6.75;97.07;96121.22;5042598;28;20198;-85
2022/02/03 06:09:07;;;;;;;2.30;2.10;;;;;;;6.76;96.70;96119.47;5051215;28;20279;-85
2022/02/03 06:14:22;;;;;;;2.23;1.93;;;;;;;6.72;97.10;96110.47;5042979;28;20224;-84
2022/02/03 06:17:04;;;;;;;2.93;1.80;;;;;;;6.72;97.42;96120.72;5046889;28;20202;-86
2022/02/03 06:22:26;;;;;;;1.97;1.87;;;;;;;6.72;96.92;96105.34;5060957;28;20838;-83
2022/02/03 06:27:38;;;;;;;2.47;2.13;;;;;;;6.68;97.80;96117.63;5048061;28;20225;-86
2022/02/03 06:30:06;;;;;;;2.33;2.00;;;;;;;6.72;97.60;96106.16;5049569;28;20388;-86
2022/02/03 06:32:38;;;;;;;2.77;1.90;;;;;;;6.66;98.48;96103.34;5050644;28;20198;-87
2022/02/03 06:35:05;;;;;;;2.20;1.90;;;;;;;6.66;98.44;96101.59;5050663;28;20202;-87
2022/02/03 06:37:32;;;;;;;2.60;2.40;;;;;;;6.65;98.63;96099.97;5041562;28;20618;-87
2022/02/03 06:39:58;;;;;;;2.67;2.13;;;;;;;6.68;98.53;96101.44;5054327;28;20220;-86
2022/02/03 06:42:25;;;;;;;2.87;2.30;;;;;;;6.65;98.83;96106.84;5056513;28;20596;-88
2022/02/03 06:44:55;;;;;;;2.60;2.23;;;;;;;6.67;98.26;96108.31;5056551;28;20213;-87
2022/02/03 06:47:28;;;;;;;2.60;1.70;;;;;;;6.66;98.53;96100.78;5057045;28;20719;-86
2022/02/03 06:50:01;;;;;;;3.60;2.00;;;;;;;6.62;99.08;96104.56;5054091;28;20252;-87
2022/02/03 06:52:43;;;;;;;4.93;2.13;;;;;;;6.67;98.63;96092.16;5055601;28;20652;-86
2022/02/03 06:55:15;;;;;;;2.03;1.87;;;;;;;6.67;98.85;96103.22;5048431;28;20197;-86
2022/02/03 06:57:47;;;;;;;3.10;2.03;;;;;;;6.68;98.38;96097.16;5056530;28;20229;-87
2022/02/03 07:00:19;;;;;;;3.53;2.40;;;;;;;6.62;98.73;96100.25;5056433;28;20200;-87
2022/02/03 07:02:48;;;;;;;3.87;2.00;;;;;;;6.63;99.53;96098.50;5056343;28;20228;-87
2022/02/03 07:05:16;;;;;;;2.47;2.13;;;;;;;6.62;99.39;96095.13;5057085;28;20222;-86
2022/02/03 07:07:43;;;;;;;2.93;1.97;;;;;;;6.62;99.30;96090.00;5055525;28;20240;-87
2022/02/03 07:10:10;;;;;;;3.43;2.10;;;;;;;6.63;99.20;96083.16;5055540;28;20205;-87
2022/02/03 07:12:38;;;;;;;2.50;2.30;;;;;;;6.69;99.10;96085.16;5050005;28;20659;-87
2022/02/03 07:15:06;;;;;;;3.60;2.03;;;;;;;6.74;98.81;96091.44;5052192;28;20198;-88
2022/02/03 07:17:33;;;;;;;2.83;2.17;;;;;;;6.77;98.53;96093.72;5055116;28;20233;-87
2022/02/03 07:20:03;;;;;;;8.70;2.53;;;;;;;6.81;98.31;96099.38;5048531;28;20206;-85
2022/02/03 07:22:31;;;;;;;2.53;2.13;;;;;;;6.79;98.44;96101.28;5053505;28;20195;-87
2022/02/03 07:25:01;;;;;;;4.40;2.30;;;;;;;6.80;98.14;96101.13;5055197;28;20229;-88
2022/02/03 07:27:28;;;;;;;2.13;1.93;;;;;;;6.77;97.99;96093.72;5055182;28;20229;-86
2022/02/03 07:29:55;;;;;;;3.83;2.10;;;;;;;6.82;97.80;96095.88;5055337;28;20197;-86
2022/02/03 07:32:23;;;;;;;2.73;2.17;;;;;;;6.83;98.22;96085.50;5056022;28;20205;-87
2022/02/03 07:34:56;;;;;;;3.47;2.27;;;;;;;6.86;97.81;96085.22;5047517;28;20226;-87
2022/02/03 07:37:27;;;;;;;6.70;2.33;;;;;;;6.91;97.24;96087.38;5035834;28;20819;-87
2022/02/03 07:39:59;;;;;;;3.27;2.20;;;;;;;6.88;97.72;96085.88;5051508;28;20205;-87
2022/02/03 07:42:28;;;;;;;3.07;2.20;;;;;;;6.91;97.82;96083.06;5057918;28;20228;-86
2022/02/03 07:44:55;;;;;;;3.83;2.30;;;;;;;6.94;97.56;96081.94;5052998;28;20218;-84
2022/02/03 07:47:21;;;;;;;4.10;2.10;;;;;;;6.94;97.60;96067.38;5053419;28;20330;-85
2022/02/03 07:49:51;;;;;;;5.87;2.60;;;;;;;6.99;97.54;96064.41;5052316;28;20186;-82
2022/02/03 07:52:17;;;;;;;3.87;2.67;;;;;;;7.04;97.28;96069.09;5054030;28;20194;-85
2022/02/03 07:54:44;;;;;;;3.40;2.50;;;;;;;7.06;97.18;96067.22;5052600;28;20202;-85
2022/02/03 07:57:11;;;;;;;3.23;2.10;;;;;;;7.05;96.84;96071.53;5044247;28;20284;-85
2022/02/03 07:59:38;;;;;;;2.87;2.30;;;;;;;7.05;96.75;96063.84;5053411;28;20204;-86
2022/02/03 08:02:05;;;;;;;2.40;2.20;;;;;;;7.06;96.96;96064.66;5053444;28;20228;-87
2022/02/03 08:04:33;;;;;;;4.53;2.40;;;;;;;7.09;96.96;96064.38;5052752;28;20216;-86
2022/02/03 08:07:00;;;;;;;2.93;2.30;;;;;;;7.12;96.77;96061.53;5052815;28;20293;-86
2022/02/03 08:09:33;;;;;;;2.30;2.10;;;;;;;7.26;96.25;96053.34;5052659;28;20201;-86
2022/02/03 08:12:06;;;;;;;2.50;2.30;;;;;;;7.33;95.78;96049.25;5052207;28;20201;-86
2022/02/03 08:14:37;;;;;;;2.20;2.00;;;;;;;7.41;94.68;96046.78;5052644;28;20198;-86
2022/02/03 08:17:08;;;;;;;2.00;1.90;;;;;;;7.51;94.10;96050.06;5046998;28;20201;-86
2022/02/03 08:19:41;;;;;;;2.30;2.13;;;;;;;7.85;92.71;96041.72;5050674;28;20225;-85
2022/02/03 08:22:13;;;;;;;2.60;2.00;;;;;;;8.29;89.81;96037.38;5051808;28;20194;-87
2022/02/03 08:24:47;;;;;;;2.03;1.90;;;;;;;8.70;85.71;96042.75;5033913;28;20229;-86
2022/02/03 08:32:45;;;;;;;1.83;1.73;;;;;;;9.41;80.70;96038.03;5051544;28;20254;-86
2022/02/03 08:35:22;;;;;;;2.70;1.90;;;;;;;9.71;78.98;96031.47;5053426;28;20644;-87
2022/02/03 08:38:01;;;;;;;1.90;1.80;;;;;;;10.09;76.55;96030.03;5051937;28;20248;-86
2022/02/03 08:40:30;;;;;;;1.77;1.67;;;;;;;10.39;75.14;96024.19;5053061;28;20201;-87
2022/02/03 08:42:57;;;;;;;2.03;1.87;;;;;;;10.38;75.11;96026.97;5050601;28;20197;-84
2022/02/03 08:45:25;;;;;;;2.93;2.10;;;;;;;10.50;74.75;96032.56;5048389;28;20220;-83
2022/02/03 08:47:51;;;;;;;2.20;2.00;;;;;;;10.54;73.87;96021.78;5041535;28;20221;-86
2022/02/03 08:50:18;;;;;;;2.70;1.80;;;;;;;10.76;73.52;96025.41;5034671;28;20194;-85
2022/02/03 08:52:55;;;;;;;2.30;2.10;;;;;;;11.00;73.52;96024.50;5046730;28;20225;-86
2022/02/03 08:55:31;;;;;;;2.00;1.90;;;;;;;11.15;71.31;96022.84;5044328;28;20194;-85
2022/02/03 08:58:28;;;;;;;1.80;1.70;;;;;;;11.10;71.01;96014.00;5043642;28;20225;-85
2022/02/03 09:39:23;;;;;;;1.60;1.50;;;;;;;11.77;66.41;95971.97;5029840;28;20217;-86
2022/02/03 09:51:21;;;;;;;1.47;1.37;;;;;;;11.82;65.67;95971.47;5002910;28;20206;-86
2022/02/03 09:56:34;;;;;;;1.37;1.27;;;;;;;11.58;65.86;95969.03;5049265;28;20318;-86
2022/02/03 09:59:08;;;;;;;1.73;1.47;;;;;;;11.68;65.72;95965.25;5050206;28;20443;-85
2022/02/03 10:01:42;;;;;;;1.40;1.30;;;;;;;11.35;66.13;95964.69;5051228;28;20225;-86
2022/02/03 10:04:13;;;;;;;1.40;1.30;;;;;;;11.23;67.29;95960.91;5046078;28;20202;-86
2022/02/03 10:06:52;;;;;;;1.93;1.10;;;;;;;11.04;67.34;95957.00;5050641;28;20229;-86
2022/02/03 10:09:37;;;;;;;1.30;1.20;;;;;;;10.88;68.27;95951.13;5039912;28;20230;-85
2022/02/03 10:12:05;;;;;;;1.30;1.20;;;;;;;10.73;69.36;95951.06;5052804;28;21648;-87
2022/02/03 10:14:33;;;;;;;1.83;1.27;;;;;;;10.64;69.42;95946.91;5055164;28;20216;-87
2022/02/03 10:17:00;;;;;;;1.40;1.30;;;;;;;10.60;70.12;95951.56;5054139;28;20247;-84
2022/02/03 10:19:33;;;;;;;1.30;1.20;;;;;;;10.65;70.61;95948.50;5053403;28;20668;-85
2022/02/03 10:22:02;;;;;;;1.40;1.20;;;;;;;10.64;70.76;95939.97;5052988;28;20213;-84
2022/02/03 10:24:33;;;;;;;1.67;1.10;;;;;;;10.55;70.78;95928.13;5054518;28;20205;-86
2022/02/03 10:27:00;;;;;;;0.97;0.97;;;;;;;10.67;69.91;95920.81;5053486;28;20214;-85
2022/02/03 10:29:33;;;;;;;1.07;1.00;;;;;;;10.53;70.07;95914.63;5053110;28;20209;-83
2022/02/03 10:31:59;;;;;;;1.10;1.10;;;;;;;10.40;70.94;95909.19;5049272;28;20202;-86
2022/02/03 10:34:29;;;;;;;1.33;1.23;;;;;;;10.68;70.48;95905.19;5054909;28;20212;-86
2022/02/03 10:37:05;;;;;;;1.27;1.17;;;;;;;11.08;69.30;95898.19;5054840;28;20927;-86
2022/02/03 10:43:09;;;;;;;0.90;0.90;;;;;;;11.52;66.71;95889.81;5034568;28;20331;-84
2022/02/03 10:45:46;;;;;;;1.83;1.30;;;;;;;11.69;65.79;95886.09;5034979;28;20701;-86
2022/02/03 10:48:38;;;;;;;1.90;1.40;;;;;;;11.67;64.46;95877.75;5033143;28;20231;-86
2022/02/03 10:51:15;;;;;;;1.47;1.37;;;;;;;11.80;64.93;95877.97;5034067;28;20322;-86
2022/02/03 10:56:42;;;;;;;0.90;0.90;;;;;;;11.94;63.62;95868.63;5050963;28;20236;-85
2022/02/03 11:02:22;;;;;;;2.07;1.13;;;;;;;11.67;64.44;95854.53;5040581;28;20242;-86
2022/02/03 11:05:09;;;;;;;1.00;1.00;;;;;;;11.44;65.28;95844.25;5052486;28;20280;-87
2022/02/03 11:07:44;;;;;;;2.03;1.00;;;;;;;11.34;65.78;95843.72;5052991;28;20209;-86
2022/02/03 11:10:24;;;;;;;0.80;0.80;;;;;;;11.05;66.05;95849.59;5052072;28;20248;-86
2022/02/03 11:12:53;;;;;;;1.63;0.90;;;;;;;11.03;66.74;95856.69;5052521;28;20194;-87
2022/02/03 11:15:20;;;;;;;1.00;1.00;;;;;;;11.05;67.76;95841.84;5045453;28;20245;-86
2022/02/03 11:17:49;;;;;;;1.10;1.00;;;;;;;11.08;67.33;95831.19;5036794;28;20214;-86
2022/02/03 11:20:17;;;;;;;1.10;1.00;;;;;;;11.22;67.33;95833.00;5044262;28;20205;-87
2022/02/03 11:22:51;;;;;;;1.20;1.10;;;;;;;11.31;67.08;95833.75;5037434;28;20743;-86
2022/02/03 11:25:29;;;;;;;1.10;1.00;;;;;;;11.28;66.71;95834.91;5035690;28;20209;-84
2022/02/03 11:28:17;;;;;;;0.90;0.90;;;;;;;11.17;67.05;95825.00;5042059;28;20276;-82
2022/02/03 11:31:08;;;;;;;0.97;0.97;;;;;;;11.21;68.04;95826.25;5040672;28;20202;-86
2022/02/03 11:45:34;;;;;;;0.90;0.90;;;;;;;11.76;65.74;95807.84;5038779;28;20260;-87
2022/02/03 11:48:24;;;;;;;1.67;1.10;;;;;;;11.86;65.16;95805.03;5052405;28;20248;-85
2022/02/03 11:57:27;;;;;;;4.43;3.60;;;;;;;11.62;66.11;95787.19;5030793;28;20237;-86
2022/02/03 12:02:57;;;;;;;1.60;1.50;;;;;;;11.40;65.66;95787.09;5050091;28;20213;-86
2022/02/03 12:06:06;;;;;;;1.40;1.30;;;;;;;11.36;66.39;95774.72;5032008;28;20640;-87
2022/02/03 12:11:53;;;;;;;1.10;1.10;;;;;;;11.17;66.87;95762.34;5032599;28;20205;-86
2022/02/03 12:20:17;;;;;;;1.20;1.10;;;;;;;10.88;68.00;95724.47;5051470;28;20682;-83
2022/02/03 12:23:05;;;;;;;1.10;1.10;;;;;;;10.86;68.24;95716.09;5052473;28;20205;-87
2022/02/03 12:25:52;;;;;;;6.90;6.40;;;;;;;10.72;68.77;95704.81;5032285;28;20246;-88
2022/02/03 12:28:30;;;;;;;1.30;1.20;;;;;;;10.78;68.95;95701.50;5032585;28;20224;-86
2022/02/03 12:31:13;;;;;;;1.40;1.20;;;;;;;10.94;68.74;95700.59;5031570;28;20225;-86
2022/02/03 12:39:13;;;;;;;2.13;1.30;;;;;;;10.84;67.62;95676.84;5051109;28;20308;-82
2022/02/03 12:41:43;;;;;;;1.90;1.13;;;;;;;10.86;68.10;95662.81;5050587;28;20661;-82
2022/02/03 12:44:18;;;;;;;1.30;1.20;;;;;;;10.81;67.62;95667.69;5051186;28;20710;-84
2022/02/03 12:46:46;;;;;;;1.40;1.30;;;;;;;10.85;67.68;95679.25;5051194;28;20319;-86
2022/02/03 12:49:12;;;;;;;4.40;1.40;;;;;;;10.90;68.22;95676.13;5051173;28;20689;-85
2022/02/03 12:51:40;;;;;;;1.40;1.30;;;;;;;11.00;67.85;95666.38;5050964;28;20204;-84
2022/02/03 12:54:11;;;;;;;1.23;1.13;;;;;;;11.08;67.38;95663.72;5051716;28;20198;-86
2022/02/03 12:56:38;;;;;;;1.37;1.10;;;;;;;11.05;66.54;95651.97;5051188;28;20205;-83
2022/02/03 12:59:04;;;;;;;1.57;0.97;;;;;;;11.05;66.77;95643.44;5050422;28;20715;-85
2022/02/03 13:01:33;;;;;;;1.20;1.10;;;;;;;11.03;66.55;95645.41;5051636;28;20205;-87
2022/02/03 13:04:04;;;;;;;2.13;1.50;;;;;;;11.01;73.04;95647.34;5050260;28;20257;-84
2022/02/03 13:06:31;;;;;;;4.53;1.40;;;;;;;11.23;74.84;95649.03;5051492;28;20225;-85
2022/02/03 13:09:04;;;;;;;3.43;1.53;;;;;;;11.34;66.87;95648.63;5051301;28;20264;-87
2022/02/03 13:11:38;;;;;;;2.63;1.30;;;;;;;11.23;67.17;95648.25;5031791;28;20293;-87
2022/02/03 13:14:15;;;;;;;3.73;1.27;;;;;;;11.16;67.30;95640.41;5032034;28;20210;-87
2022/02/03 13:16:48;;;;;;;2.97;1.13;;;;;;;11.17;67.72;95618.81;5037121;28;20205;-87
2022/02/03 13:19:19;;;;;;;1.20;1.10;;;;;;;11.08;67.95;95622.50;5039235;28;20288;-87
2022/02/03 13:22:02;;;;;;;0.80;0.80;;;;;;;11.02;66.67;95613.69;5050951;28;20298;-86
2022/02/03 13:25:00;;;;;;;0.93;0.80;;;;;;;11.02;67.02;95610.31;5046042;28;20206;-86
2022/02/03 13:27:35;;;;;;;1.03;0.80;;;;;;;11.04;67.85;95613.50;5050579;28;20213;-87
2022/02/03 13:30:05;;;;;;;5.90;1.17;;;;;;;11.16;66.80;95601.00;5049879;28;20227;-87
2022/02/03 13:32:37;;;;;;;0.87;0.77;;;;;;;11.14;66.93;95600.38;5049610;28;20225;-87
2022/02/03 13:35:20;;;;;;;16.47;1.87;;;;;;;11.15;66.89;95591.66;5050776;28;20204;-88
2022/02/03 13:37:51;;;;;;;1.10;1.00;;;;;;;11.13;67.55;95586.69;5050835;28;20213;-87
2022/02/03 13:40:20;;;;;;;0.90;0.90;;;;;;;11.08;66.68;95571.75;5051182;28;20193;-87
2022/02/03 13:42:49;;;;;;;0.87;0.87;;;;;;;11.02;67.34;95569.88;5049662;28;20248;-87
2022/02/03 13:45:18;;;;;;;0.97;0.97;;;;;;;11.00;67.22;95563.31;5051127;28;20193;-88
2022/02/03 13:47:46;;;;;;;1.73;0.90;;;;;;;10.92;67.52;95560.84;5054916;28;20233;-87
2022/02/03 13:50:21;;;;;;;1.10;1.00;;;;;;;10.95;68.14;95552.78;5054906;28;20205;-88
2022/02/03 13:52:53;;;;;;;2.43;1.07;;;;;;;10.92;67.79;95538.47;5054765;28;20232;-89
2022/02/03 14:15:08;;;;;;;1.67;1.40;;;;;;;10.78;71.75;95516.06;5053531;28;20189;-87
2022/02/03 14:20:38;;;;;;;2.53;2.33;;;;;;;10.75;73.18;95529.34;5047873;28;20251;-87
2022/02/03 14:28:35;;;;;;;2.23;2.03;;;;;;;10.69;73.11;95509.44;5052662;28;20591;-87
2022/02/03 14:31:05;;;;;;;2.80;2.10;;;;;;;10.64;73.45;95507.41;5053807;28;20225;-84
2022/02/03 14:33:34;;;;;;;2.03;1.83;;;;;;;10.64;73.58;95511.75;5053172;28;20221;-84
2022/02/03 14:36:05;;;;;;;1.93;1.83;;;;;;;10.64;73.44;95512.53;5052068;28;20198;-83
2022/02/03 14:38:38;;;;;;;3.07;2.10;;;;;;;10.64;72.81;95516.91;5054358;28;20206;-83
2022/02/03 14:41:12;;;;;;;2.30;2.10;;;;;;;10.57;72.46;95508.31;5052353;28;20855;-83
2022/02/03 14:43:40;;;;;;;2.63;1.80;;;;;;;10.55;72.24;95516.19;5053561;28;20194;-87
2022/02/03 14:46:12;;;;;;;2.70;2.10;;;;;;;10.59;72.24;95509.69;5052468;28;20194;-84
2022/02/03 14:48:41;;;;;;;2.43;2.00;;;;;;;10.57;72.42;95498.00;5045596;28;20710;-85
2022/02/03 14:51:07;;;;;;;3.77;2.20;;;;;;;10.53;72.50;95476.97;5052840;28;20212;-85
2022/02/03 14:53:49;;;;;;;1.97;1.80;;;;;;;10.40;72.36;95476.78;5052833;28;20288;-84
2022/02/03 14:59:01;;;;;;;1.90;1.70;;;;;;;10.21;71.46;95477.31;5049865;28;20723;-84
2022/02/03 15:01:30;;;;;;;2.27;1.77;;;;;;;10.31;71.29;95481.22;5051669;28;20201;-88
2022/02/03 15:03:58;;;;;;;3.57;1.67;;;;;;;10.33;69.33;95487.00;5052245;28;20297;-85
2022/02/03 15:06:27;;;;;;;1.97;1.37;;;;;;;10.32;68.09;95482.81;5052345;28;20225;-85
2022/02/03 15:09:09;;;;;;;3.20;1.57;;;;;;;10.33;68.19;95479.28;5051925;28;20225;-86
2022/02/03 15:11:54;;;;;;;4.33;1.20;;;;;;;10.37;68.14;95492.59;5048750;28;20193;-86
2022/02/03 15:14:22;;;;;;;3.37;1.20;;;;;;;10.30;66.85;95466.75;5046543;28;20232;-87
2022/02/03 15:16:48;;;;;;;3.07;1.30;;;;;;;10.26;67.37;95472.44;5046682;28;20193;-87
2022/02/03 15:19:15;;;;;;;1.63;1.23;;;;;;;10.24;66.85;95458.94;5052031;28;20218;-88
2022/02/03 15:21:41;;;;;;;2.80;1.03;;;;;;;10.16;67.26;95456.44;5052445;28;20193;-86
2022/02/03 15:24:09;;;;;;;2.13;1.10;;;;;;;10.15;67.73;95452.25;5052554;28;20588;-86
2022/02/03 15:26:36;;;;;;;2.80;1.30;;;;;;;10.19;68.06;95458.69;5052518;28;20633;-87
2022/02/03 15:29:02;;;;;;;1.70;1.40;;;;;;;10.17;67.40;95463.19;5053357;28;20221;-87
2022/02/03 15:31:32;;;;;;;3.97;2.37;;;;;;;10.13;67.43;95467.88;5036899;28;20211;-88
2022/02/03 15:34:05;;;;;;;2.00;1.30;;;;;;;10.16;67.55;95462.38;5033620;28;20292;-85
2022/02/03 15:36:34;;;;;;;2.00;1.80;;;;;;;10.19;67.71;95469.78;5032439;28;20233;-87
2022/02/03 15:39:06;;;;;;;2.10;1.30;;;;;;;10.22;67.69;95464.25;5033047;28;20222;-84
2022/02/03 15:41:32;;;;;;;1.33;1.23;;;;;;;10.23;67.25;95460.72;5032640;28;20260;-86
2022/02/03 15:44:00;;;;;;;1.73;1.23;;;;;;;10.30;67.60;95451.31;5032877;28;20202;-87
2022/02/03 15:46:29;;;;;;;3.60;1.20;;;;;;;10.29;67.36;95454.06;5031969;28;20316;-88
2022/02/03 15:49:05;;;;;;;1.93;1.60;;;;;;;10.23;66.93;95454.75;5032193;28;20230;-87
2022/02/03 15:57:21;;;;;;;1.80;1.67;;;;;;;10.12;67.38;95471.44;5052168;28;20219;-87
2022/02/03 16:19:08;;;;;;;1.83;1.70;;;;;;;10.03;68.19;95462.97;5051960;28;20236;-87
2022/02/03 16:21:40;;;;;;;1.90;1.80;;;;;;;10.02;67.92;95460.56;5051765;28;20197;-87
2022/02/03 16:24:23;;;;;;;3.23;2.10;;;;;;;9.96;68.61;95458.72;5051412;28;20216;-87
2022/02/03 16:40:43;;;;;;;2.00;1.80;;;;;;;9.92;68.30;95453.13;5051106;28;20245;-84
2022/02/03 16:50:20;;;;;;;5.37;2.20;;;;;;;9.81;69.20;95452.75;5029293;28;20251;-86
2022/02/03 16:52:17;;;;;;;4.70;2.60;;;;;;;9.63;70.43;95443.56;5051515;28;20212;-86
2022/02/03 16:54:45;;;;;;;2.93;2.70;;;;;;;9.63;69.95;95441.00;5049257;28;20572;-87
2022/02/03 16:57:15;;;;;;;4.30;2.83;;;;;;;9.60;70.51;95448.28;5049880;28;20227;-88
2022/02/03 16:59:50;;;;;;;5.73;3.10;;;;;;;9.58;70.31;95447.66;5050082;28;20225;-87
2022/02/03 17:02:17;;;;;;;3.37;3.00;;;;;;;9.60;70.76;95446.53;5049591;28;20296;-86
2022/02/03 17:04:43;;;;;;;4.50;2.90;;;;;;;9.63;70.42;95437.63;5050247;28;20200;-87
2022/02/03 17:07:10;;;;;;;10.93;4.10;;;;;;;9.63;70.50;95428.16;5050064;28;20217;-87
2022/02/03 17:09:38;;;;;;;4.13;3.30;;;;;;;9.64;70.49;95422.03;5050035;28;20201;-87
2022/02/03 17:12:07;;;;;;;3.70;3.30;;;;;;;9.65;70.40;95431.34;5048496;28;20813;-87
2022/02/03 17:14:33;;;;;;;3.40;3.03;;;;;;;9.62;70.79;95441.97;5038553;28;20205;-84
2022/02/03 17:17:00;;;;;;;3.70;3.03;;;;;;;9.64;70.53;95441.81;5033543;28;20217;-85
2022/02/03 17:19:26;;;;;;;3.43;3.00;;;;;;;9.66;70.58;95448.38;5034201;28;20221;-87
2022/02/03 17:21:53;;;;;;;4.53;3.27;;;;;;;9.67;70.52;95449.97;5033200;28;20556;-86
2022/02/03 17:24:19;;;;;;;3.90;3.17;;;;;;;9.67;70.69;95447.41;5040870;28;20845;-88
2022/02/03 17:26:50;;;;;;;5.00;3.00;;;;;;;9.65;70.82;95449.34;5040806;28;20225;-87
2022/02/03 17:29:24;;;;;;;5.03;3.70;;;;;;;9.65;70.80;95451.91;5046090;28;20220;-86
2022/02/03 17:31:59;;;;;;;4.30;3.53;;;;;;;9.65;71.22;95445.97;5050577;28;20280;-85
2022/02/03 18:10:46;;;;;;;5.27;4.60;;;;;;;9.26;72.41;95405.81;5030535;28;20202;-86
2022/02/03 18:32:45;;;;;;;5.10;4.40;;;;;;;9.12;74.15;95418.63;5048767;28;20255;-84
2022/02/03 18:35:33;;;;;;;5.53;4.33;;;;;;;9.08;73.98;95407.88;5042036;28;20228;-82
2022/02/03 18:51:49;;;;;;;5.03;4.53;;;;;;;9.13;75.13;95395.31;5052373;28;20196;-87
2022/02/03 18:54:25;;;;;;;6.03;3.90;;;;;;;9.12;75.27;95380.88;5053527;28;20227;-87
2022/02/03 18:56:59;;;;;;;4.37;3.90;;;;;;;9.11;75.42;95389.56;5053413;28;20288;-83
2022/02/03 18:59:49;;;;;;;4.67;3.83;;;;;;;9.08;76.15;95397.59;5053069;28;20229;-86
2022/02/03 19:11:04;;;;;;;5.30;4.00;;;;;;;9.03;76.96;95384.50;5047917;28;20310;-87
2022/02/03 19:16:17;;;;;;;5.10;4.00;;;;;;;9.08;76.12;95392.47;5047135;28;20193;-89
2022/02/03 19:24:45;;;;;;;6.03;4.07;;;;;;;8.99;76.98;95378.91;5047969;28;20291;-86
2022/02/03 19:27:37;;;;;;;4.93;4.07;;;;;;;8.98;77.78;95381.66;5052383;28;20197;-87
2022/02/03 20:05:54;;;;;;;5.40;4.60;;;;;;;8.59;79.14;95367.13;5039446;28;20294;-88